Time;durP1;ratioP1;P1;durP2;ratioP2;P2;SDS_P1;SDS_P2;PMS_P1;PMS_P2;Temp;Humidity;BMP_temperature;BMP_pressure;BME280_temperature;BME280_humidity;BME280_pressure;Samples;Min_cycle;Max_cycle;Signal;HPM_P1;HPM_P2
2023/12/23 00:02:13;;;;;;;15.68;5.13;;;;;;;29.03;50.16;101216.91;4958000;28;69762;-39
2023/12/23 00:04:43;;;;;;;12.43;5.18;;;;;;;29.04;50.05;101224.03;4970377;28;66672;-39
2023/12/23 00:07:14;;;;;;;5.45;4.65;;;;;;;28.97;50.48;101223.94;4952606;28;69466;-39
2023/12/23 00:09:45;;;;;;;4.93;4.63;;;;;;;28.95;51.26;101226.84;4972162;28;66822;-38
2023/12/23 00:12:15;;;;;;;6.63;6.03;;;;;;;29.08;52.38;101241.47;4978213;28;69858;-39
2023/12/23 00:14:45;;;;;;;10.40;6.28;;;;;;;29.07;52.54;101245.22;4972665;28;65835;-39
2023/12/23 00:17:15;;;;;;;10.82;6.85;;;;;;;29.16;53.18;101260.22;4970867;28;69877;-40
2023/12/23 00:19:45;;;;;;;7.75;6.78;;;;;;;29.10;53.92;101248.34;4964422;28;65756;-38
2023/12/23 00:22:16;;;;;;;7.95;7.18;;;;;;;29.22;53.84;101259.41;4946754;28;70539;-39
2023/12/23 00:24:46;;;;;;;16.08;9.57;;;;;;;29.26;54.65;101263.41;4973292;28;66639;-39
2023/12/23 00:27:16;;;;;;;21.08;10.10;;;;;;;29.26;54.75;101259.88;4963701;28;70418;-38
2023/12/23 00:29:47;;;;;;;16.08;11.77;;;;;;;29.27;55.46;101275.88;4956389;28;66329;-39
2023/12/23 00:32:17;;;;;;;11.88;10.52;;;;;;;29.30;56.10;101270.06;4965202;28;69006;-39
2023/12/23 00:34:47;;;;;;;14.70;11.13;;;;;;;29.35;55.69;101283.81;4964345;28;66645;-39
2023/12/23 00:37:18;;;;;;;16.15;10.32;;;;;;;29.18;55.93;101260.88;4962081;28;70187;-39
2023/12/23 00:39:48;;;;;;;12.70;10.70;;;;;;;29.30;56.69;101286.28;4964595;28;66690;-40
2023/12/23 00:42:19;;;;;;;20.92;10.70;;;;;;;29.26;56.28;101274.22;4953377;28;70360;-39
2023/12/23 00:44:50;;;;;;;12.82;9.68;;;;;;;29.40;56.60;101302.97;4950483;28;66116;-38
2023/12/23 00:47:21;;;;;;;12.48;9.68;;;;;;;29.33;57.16;101285.03;4948553;28;69536;-39
2023/12/23 00:49:52;;;;;;;23.33;10.45;;;;;;;29.42;57.39;101299.22;4971354;28;66147;-39
2023/12/23 00:52:22;;;;;;;18.67;10.02;;;;;;;29.45;57.50;101305.06;4965980;28;69330;-40
2023/12/23 00:54:52;;;;;;;16.52;10.45;;;;;;;29.47;57.59;101318.38;4966119;28;68006;-40
2023/12/23 00:57:23;;;;;;;16.27;11.60;;;;;;;29.54;57.75;101324.66;4948731;28;70086;-40
2023/12/23 00:59:54;;;;;;;15.52;12.38;;;;;;;29.53;58.29;101322.97;4936474;28;65959;-40
2023/12/23 01:02:25;;;;;;;17.60;10.75;;;;;;;29.54;57.93;101330.06;4936866;28;69892;-40
2023/12/23 01:04:55;;;;;;;11.32;9.32;;;;;;;29.40;57.76;101315.66;4933447;28;66116;-39
2023/12/23 01:07:26;;;;;;;11.20;9.25;;;;;;;29.55;58.15;101326.31;4945131;28;70479;-39
2023/12/23 01:09:57;;;;;;;15.80;9.43;;;;;;;29.56;57.66;101322.56;4961657;28;66582;-38
2023/12/23 01:12:27;;;;;;;14.63;8.50;;;;;;;29.59;57.83;101327.59;4947816;28;69885;-38
2023/12/23 01:14:58;;;;;;;14.52;8.63;;;;;;;29.60;56.65;101319.28;4961403;28;65976;-39
2023/12/23 01:17:28;;;;;;;8.98;8.07;;;;;;;29.65;56.58;101317.88;4974494;28;70624;-40
2023/12/23 01:19:58;;;;;;;13.32;9.63;;;;;;;29.53;62.08;101317.56;4972466;28;65659;-37
2023/12/23 01:22:29;;;;;;;19.08;9.18;;;;;;;29.53;60.60;101314.88;4947685;28;70616;-38
2023/12/23 01:24:59;;;;;;;9.90;8.57;;;;;;;29.51;62.46;101319.66;4941085;28;65151;-39
2023/12/23 01:27:30;;;;;;;12.20;8.20;;;;;;;29.46;61.62;101322.13;4960591;28;70074;-39
2023/12/23 01:30:00;;;;;;;9.43;7.82;;;;;;;29.48;63.23;101325.47;4944606;28;65838;-39
2023/12/23 01:32:31;;;;;;;15.18;8.25;;;;;;;29.33;61.66;101302.09;4967510;28;70292;-39
2023/12/23 01:35:01;;;;;;;16.40;8.05;;;;;;;29.34;62.66;101308.34;4950587;28;65940;-39
2023/12/23 01:37:32;;;;;;;11.32;8.93;;;;;;;29.41;62.67;101314.59;4928435;28;69118;-38
2023/12/23 01:40:02;;;;;;;10.98;9.00;;;;;;;29.33;60.84;101299.38;4938793;28;66805;-40
2023/12/23 01:42:33;;;;;;;10.90;8.45;;;;;;;29.49;61.06;101319.03;4960229;28;70029;-39
2023/12/23 01:45:03;;;;;;;13.93;9.07;;;;;;;29.49;62.33;101327.13;4966144;28;66661;-40
2023/12/23 01:47:36;;;;;;;10.07;8.20;;;;;;;29.46;63.13;101325.66;4959453;28;70408;-38
2023/12/23 01:50:09;;;;;;;13.98;8.43;;;;;;;29.13;62.35;101268.72;4940126;28;66881;-39
2023/12/23 01:52:40;;;;;;;9.77;8.35;;;;;;;29.51;62.46;101325.06;4932366;28;70221;-39
2023/12/23 01:55:11;;;;;;;9.38;8.32;;;;;;;29.50;61.79;101331.50;4969475;28;65608;-38
2023/12/23 01:57:42;;;;;;;9.57;8.63;;;;;;;29.46;60.75;101324.81;4948360;28;70583;-38
2023/12/23 02:00:12;;;;;;;11.35;8.50;;;;;;;29.37;62.02;101300.66;4955258;28;65819;-38
2023/12/23 02:02:44;;;;;;;12.00;8.93;;;;;;;29.55;61.95;101320.91;4942347;28;70830;-38
2023/12/23 02:05:15;;;;;;;18.48;9.23;;;;;;;29.57;60.97;101319.69;4963281;28;66233;-38
2023/12/23 02:07:46;;;;;;;9.98;8.88;;;;;;;29.59;60.92;101322.19;4949978;28;70428;-39
2023/12/23 02:10:16;;;;;;;14.98;8.68;;;;;;;29.55;62.38;101327.16;4950570;28;66331;-38
2023/12/23 02:13:16;;;;;;;9.93;8.07;;;;;;;29.51;62.90;101327.78;4938722;28;69996;-38
2023/12/23 02:15:47;;;;;;;11.05;9.00;;;;;;;29.53;61.88;101317.56;4959218;28;65524;-38
2023/12/23 02:18:22;;;;;;;9.07;8.38;;;;;;;29.59;60.63;101322.19;4958006;28;70890;-38
2023/12/23 02:20:56;;;;;;;15.25;9.07;;;;;;;29.58;60.32;101307.81;4967264;28;67014;-38
2023/12/23 02:23:26;;;;;;;10.27;8.38;;;;;;;29.65;61.46;101326.00;4960982;28;70543;-39
2023/12/23 02:26:00;;;;;;;11.20;9.00;;;;;;;29.69;62.23;101330.78;4942233;28;67002;-39
2023/12/23 02:28:34;;;;;;;12.80;9.32;;;;;;;29.68;61.72;101331.00;4927567;28;70183;-38
2023/12/23 02:31:07;;;;;;;11.43;9.25;;;;;;;29.69;62.63;101330.78;4955817;28;65336;-39
2023/12/23 02:33:37;;;;;;;10.52;9.50;;;;;;;29.70;62.29;101331.59;4951242;28;69735;-38
2023/12/23 02:36:08;;;;;;;10.00;8.98;;;;;;;29.72;60.60;101321.44;4958140;28;68426;-38
2023/12/23 02:38:39;;;;;;;14.15;9.45;;;;;;;29.75;61.67;101324.56;4970814;28;70092;-38
2023/12/23 02:41:10;;;;;;;12.60;9.50;;;;;;;29.78;61.18;101320.63;4955798;28;66348;-40
2023/12/23 02:43:41;;;;;;;11.80;8.63;;;;;;;29.67;61.10;101297.72;4957132;28;70791;-39
2023/12/23 02:46:12;;;;;;;13.70;8.85;;;;;;;29.79;62.61;101312.31;4964838;28;65975;-40
2023/12/23 02:48:42;;;;;;;10.88;8.48;;;;;;;29.88;60.99;101309.44;4955727;28;69541;-39
2023/12/23 02:51:12;;;;;;;12.93;8.23;;;;;;;29.51;61.18;101241.28;4979027;28;66841;-38
2023/12/23 02:53:43;;;;;;;8.05;7.25;;;;;;;29.90;61.92;101319.00;4960081;28;70271;-39
2023/12/23 02:56:13;;;;;;;8.38;7.57;;;;;;;29.92;62.61;101313.38;4962155;28;66380;-38
2023/12/23 02:58:43;;;;;;;7.57;6.85;;;;;;;29.90;62.44;101307.38;4971960;28;70525;-38
2023/12/23 03:01:13;;;;;;;10.55;5.97;;;;;;;29.83;61.62;101286.53;4961193;28;66509;-39
2023/12/23 03:03:44;;;;;;;7.35;6.65;;;;;;;29.91;62.75;101295.50;4966922;28;69929;-40
2023/12/23 03:06:14;;;;;;;7.03;6.53;;;;;;;29.87;61.85;101280.72;4949291;28;65845;-39
2023/12/23 03:08:45;;;;;;;7.97;6.18;;;;;;;30.03;62.52;101301.97;4947500;28;70097;-40
2023/12/23 03:11:15;;;;;;;6.82;6.10;;;;;;;30.03;60.87;101296.56;4968823;28;65478;-39
2023/12/23 03:13:45;;;;;;;6.32;5.88;;;;;;;30.09;61.15;101295.75;4970034;28;70455;-38
2023/12/23 03:16:18;;;;;;;5.60;5.20;;;;;;;30.06;62.49;101297.00;4945861;28;43296;-39
2023/12/23 03:18:49;;;;;;;5.55;5.15;;;;;;;30.05;62.12;101283.66;4975916;28;70595;-38
2023/12/23 03:21:22;;;;;;;6.55;5.03;;;;;;;30.10;62.49;101294.72;4977902;28;67170;-38
2023/12/23 03:23:53;;;;;;;5.30;4.90;;;;;;;30.00;62.48;101265.34;4958823;28;69793;-38
2023/12/23 03:26:24;;;;;;;5.28;4.80;;;;;;;30.03;61.35;101266.81;4960427;28;66729;-38
2023/12/23 03:28:54;;;;;;;5.03;4.63;;;;;;;30.15;62.65;101288.69;4943622;28;70893;-38
2023/12/23 03:31:24;;;;;;;4.72;4.32;;;;;;;30.20;60.74;101280.78;4943669;28;66192;-40
2023/12/23 03:33:54;;;;;;;5.30;4.90;;;;;;;30.18;62.88;101278.28;4961089;28;70216;-39
2023/12/23 03:36:24;;;;;;;4.22;3.92;;;;;;;30.23;62.01;101275.84;4961793;28;66798;-39
2023/12/23 03:38:58;;;;;;;5.18;4.78;;;;;;;30.14;62.68;101262.66;4963900;28;70371;-40
2023/12/23 03:41:29;;;;;;;10.63;7.22;;;;;;;30.23;61.96;101265.00;4943912;28;66123;-39
2023/12/23 03:44:00;;;;;;;7.82;7.22;;;;;;;30.24;61.47;101255.84;4944860;28;70352;-39
2023/12/23 03:46:30;;;;;;;7.55;6.75;;;;;;;30.20;61.03;101243.75;4947066;28;67001;-41
2023/12/23 03:49:00;;;;;;;9.00;7.25;;;;;;;30.17;60.66;101232.47;4972268;28;69864;-38
2023/12/23 03:51:30;;;;;;;17.67;7.85;;;;;;;30.27;60.09;101236.47;4956949;28;64291;-39
2023/12/23 03:54:01;;;;;;;8.18;7.22;;;;;;;30.27;60.15;101219.41;4956199;28;70247;-40
2023/12/23 03:56:31;;;;;;;12.60;7.65;;;;;;;30.26;59.49;101218.59;4971769;28;66708;-40
2023/12/23 03:59:01;;;;;;;20.67;7.53;;;;;;;30.37;58.78;101232.50;4966821;28;70600;-40
2023/12/23 04:01:32;;;;;;;19.42;7.93;;;;;;;30.39;58.67;101225.03;4965226;28;66149;-41
2023/12/23 04:04:03;;;;;;;11.30;6.85;;;;;;;30.36;58.67;101209.22;4963318;28;69712;-39
2023/12/23 04:06:33;;;;;;;;;;;;;;;30.19;59.58;101215.00;4949632;28;65877;-39
2023/12/23 04:09:04;;;;;;;8.50;6.10;;;;;;;30.42;59.61;101208.38;4974981;28;69929;-40
2023/12/23 04:11:38;;;;;;;15.18;6.60;;;;;;;30.44;59.72;101201.69;4954415;28;65361;-40
2023/12/23 04:14:10;;;;;;;6.53;6.00;;;;;;;30.46;59.53;101209.63;4917173;28;69393;-40
2023/12/23 04:16:40;;;;;;;14.18;8.05;;;;;;;30.50;58.82;101208.16;4964212;28;65502;-40
2023/12/23 04:19:11;;;;;;;8.63;6.03;;;;;;;30.47;58.25;101208.56;4969666;28;69462;-39
2023/12/23 04:21:42;;;;;;;17.70;7.00;;;;;;;30.51;59.07;101207.13;4927364;28;65943;-39
2023/12/23 04:24:12;;;;;;;11.70;6.50;;;;;;;30.64;58.41;101207.09;4931968;28;69911;-41
2023/12/23 04:26:43;;;;;;;5.70;5.20;;;;;;;30.77;58.55;101205.41;4958693;28;66178;-39
2023/12/23 04:29:13;;;;;;;4.78;4.47;;;;;;;30.83;58.08;101193.75;4974180;28;69288;-39
2023/12/23 04:31:44;;;;;;;5.38;4.97;;;;;;;30.66;58.34;101150.03;4947925;28;66671;-39
2023/12/23 04:34:14;;;;;;;5.32;4.32;;;;;;;30.96;58.00;101190.19;4956282;28;70571;-39
2023/12/23 04:36:45;;;;;;;6.28;3.80;;;;;;;31.01;57.90;101183.09;4963887;28;66281;-40
2023/12/23 04:39:15;;;;;;;4.30;3.60;;;;;;;31.07;58.60;101184.94;4963461;28;70276;-39
2023/12/23 04:41:48;;;;;;;3.28;3.05;;;;;;;31.10;58.24;101173.66;4951624;28;65993;-39
2023/12/23 04:44:22;;;;;;;3.80;3.50;;;;;;;31.14;58.11;101166.75;4945358;28;70762;-39
2023/12/23 04:46:52;;;;;;;3.08;2.60;;;;;;;31.17;58.22;101162.78;4964435;28;66072;-39
2023/12/23 04:49:23;;;;;;;4.20;3.03;;;;;;;31.21;57.79;101168.63;4944398;28;70544;-39
2023/12/23 04:51:53;;;;;;;3.42;3.10;;;;;;;31.26;58.00;101152.50;4955138;28;66132;-40
2023/12/23 04:54:24;;;;;;;3.25;2.92;;;;;;;31.24;57.80;101141.91;4959020;28;70440;-39
2023/12/23 04:56:54;;;;;;;3.00;2.70;;;;;;;31.28;58.09;101143.13;4948328;28;66631;-41
2023/12/23 04:59:24;;;;;;;4.53;3.33;;;;;;;31.34;58.22;101147.69;4946583;28;69441;-40
2023/12/23 05:01:59;;;;;;;5.00;3.30;;;;;;;31.37;58.04;101151.84;4955079;28;66156;-38
2023/12/23 05:04:30;;;;;;;5.95;2.88;;;;;;;31.38;58.18;101143.53;4966902;28;70380;-39
2023/12/23 05:07:00;;;;;;;3.60;3.30;;;;;;;31.41;57.83;101131.41;4962413;28;66794;-39
2023/12/23 05:09:30;;;;;;;7.53;3.55;;;;;;;31.38;58.08;101131.84;4940393;28;70356;-39
2023/12/23 05:12:00;;;;;;;3.92;3.53;;;;;;;31.47;57.92;101130.53;4948520;28;65459;-39
2023/12/23 05:14:31;;;;;;;3.90;3.60;;;;;;;31.50;58.16;101140.94;4960265;28;70621;-39
2023/12/23 05:17:01;;;;;;;4.43;3.47;;;;;;;31.48;57.91;101134.94;4963702;28;65475;-39
2023/12/23 05:19:33;;;;;;;3.83;3.50;;;;;;;31.39;58.39;101112.66;4960774;28;70868;-39
2023/12/23 05:22:03;;;;;;;6.78;3.45;;;;;;;31.11;57.70;101061.50;4946172;28;65307;-39
2023/12/23 05:24:36;;;;;;;5.07;3.13;;;;;;;31.54;57.86;101123.19;4967091;28;71206;-40
2023/12/23 05:27:08;;;;;;;6.82;3.50;;;;;;;31.58;57.96;101116.28;4963649;28;65877;-41
2023/12/23 05:29:39;;;;;;;3.80;3.50;;;;;;;31.64;58.11;101130.00;4964790;28;71796;-40
2023/12/23 05:32:09;;;;;;;4.43;4.00;;;;;;;31.60;57.92;101118.78;4966927;28;66917;-40
2023/12/23 05:34:39;;;;;;;4.55;3.42;;;;;;;31.68;58.08;101120.38;4935949;28;69373;-47
2023/12/23 05:37:09;;;;;;;5.97;3.72;;;;;;;31.71;57.58;101114.53;4945295;28;66306;-40
2023/12/23 05:39:40;;;;;;;3.65;3.05;;;;;;;31.69;57.94;101106.59;4967572;28;70655;-40
2023/12/23 05:42:11;;;;;;;4.32;3.92;;;;;;;31.71;57.89;101109.94;4960770;28;66471;-40
2023/12/23 05:44:42;;;;;;;4.03;3.70;;;;;;;31.75;57.89;101110.31;4945193;28;70544;-40
2023/12/23 05:47:13;;;;;;;2.97;2.72;;;;;;;31.67;57.84;101088.88;4966266;28;66052;-40
2023/12/23 05:49:43;;;;;;;3.40;3.10;;;;;;;31.80;57.72;101102.34;4958776;28;70565;-40
2023/12/23 05:52:14;;;;;;;3.22;3.03;;;;;;;31.81;57.69;101106.72;4967876;28;66998;-40
2023/12/23 05:54:44;;;;;;;8.77;3.25;;;;;;;31.79;57.71;101085.25;4975433;28;69856;-39
2023/12/23 05:57:14;;;;;;;3.55;3.25;;;;;;;31.75;57.36;101069.63;4926673;28;65801;-40
2023/12/23 05:59:44;;;;;;;7.40;2.97;;;;;;;31.82;57.29;101067.69;4971333;28;70520;-39
2023/12/23 06:02:14;;;;;;;4.57;2.63;;;;;;;31.91;57.09;101082.66;4955646;28;66517;-39
2023/12/23 06:04:45;;;;;;;3.10;2.90;;;;;;;31.94;57.25;101065.94;4929462;28;69233;-39
2023/12/23 06:07:15;;;;;;;2.60;2.40;;;;;;;31.91;56.98;101055.53;4971803;28;66503;-39
2023/12/23 06:09:46;;;;;;;3.13;2.22;;;;;;;31.98;57.15;101067.16;4964882;28;69822;-39
2023/12/23 06:12:16;;;;;;;3.08;2.42;;;;;;;31.99;56.85;101063.41;4960325;28;66757;-39
2023/12/23 06:14:46;;;;;;;2.90;2.70;;;;;;;31.93;57.08;101053.44;4957495;28;69830;-39
2023/12/23 06:17:16;;;;;;;2.90;2.53;;;;;;;31.99;56.62;101057.97;4962586;28;67051;-40
2023/12/23 06:19:47;;;;;;;2.83;2.63;;;;;;;32.02;56.71;101062.94;4945754;28;70304;-39
2023/12/23 06:22:17;;;;;;;2.40;2.20;;;;;;;32.01;56.76;101050.44;4962546;28;66869;-39
2023/12/23 06:24:47;;;;;;;2.53;2.33;;;;;;;32.11;56.68;101052.63;4965938;28;70559;-38
2023/12/23 06:27:18;;;;;;;4.72;2.42;;;;;;;32.13;56.87;101057.84;4973171;28;66336;-39
2023/12/23 06:29:48;;;;;;;5.38;2.15;;;;;;;32.15;56.70;101040.28;4966936;28;70159;-38
2023/12/23 06:32:18;;;;;;;3.22;2.60;;;;;;;32.12;56.76;101034.44;4972726;28;66825;-39
2023/12/23 06:34:49;;;;;;;2.97;2.75;;;;;;;32.18;56.49;101038.97;4967744;28;70569;-39
2023/12/23 06:37:19;;;;;;;6.88;2.75;;;;;;;32.20;56.53;101037.69;4953895;28;66836;-39
2023/12/23 06:39:49;;;;;;;2.75;2.03;;;;;;;32.21;56.56;101022.25;4962783;28;69878;-40
2023/12/23 06:42:20;;;;;;;2.92;2.20;;;;;;;32.13;56.29;101014.41;4966566;28;66533;-39
2023/12/23 06:44:50;;;;;;;2.28;2.17;;;;;;;32.26;56.27;101025.09;4942735;28;70376;-39
2023/12/23 06:47:20;;;;;;;4.80;2.33;;;;;;;32.28;56.25;101006.72;4958163;28;66125;-39
2023/12/23 06:49:51;;;;;;;1.77;1.67;;;;;;;32.30;56.14;101004.59;4964750;28;69812;-39
2023/12/23 06:52:21;;;;;;;2.95;2.45;;;;;;;32.27;56.20;100996.91;4948475;28;65698;-39
2023/12/23 06:54:52;;;;;;;3.15;1.83;;;;;;;32.31;56.01;101000.00;4956477;28;70034;-39
2023/12/23 06:57:22;;;;;;;2.58;2.38;;;;;;;32.30;56.13;100988.31;4943332;28;65599;-40
2023/12/23 06:59:52;;;;;;;3.88;2.25;;;;;;;31.99;55.78;100952.16;4979536;28;69896;-40
2023/12/23 07:02:22;;;;;;;2.10;1.98;;;;;;;32.37;55.90;101005.34;4968661;28;66425;-40
2023/12/23 07:04:53;;;;;;;5.80;2.10;;;;;;;32.37;55.89;101009.94;4970691;28;70167;-39
2023/12/23 07:07:24;;;;;;;3.28;1.80;;;;;;;32.19;56.07;100975.50;4927199;28;65068;-40
2023/12/23 07:09:55;;;;;;;1.90;1.80;;;;;;;32.36;55.95;101003.69;4957845;28;70654;-40
2023/12/23 07:12:35;;;;;;;2.83;1.60;;;;;;;32.39;56.07;101003.22;4951046;28;65455;-40
2023/12/23 07:15:08;;;;;;;2.33;1.10;;;;;;;32.34;55.25;100994.94;4946438;28;69512;-39
2023/12/23 07:17:38;;;;;;;;;;;;;;;32.16;54.11;101008.53;4963004;28;66290;-39
2023/12/23 07:20:11;;;;;;;2.55;1.38;;;;;;;32.40;54.94;101006.78;4944348;28;69863;-40
2023/12/23 07:22:42;;;;;;;4.18;1.58;;;;;;;32.31;54.76;100984.53;4970774;28;65743;-41
2023/12/23 07:25:12;;;;;;;4.60;1.17;;;;;;;32.44;54.49;100991.69;4979724;28;69496;-39
2023/12/23 07:27:42;;;;;;;2.42;1.73;;;;;;;32.43;54.91;100981.88;4971088;28;66661;-40
2023/12/23 07:30:14;;;;;;;4.70;1.50;;;;;;;32.45;54.79;100980.59;4964345;28;69517;-40
2023/12/23 07:32:44;;;;;;;;;;;;;;;32.22;54.44;100970.44;4963190;28;66597;-39
2023/12/23 07:35:14;;;;;;;1.73;1.50;;;;;;;32.44;55.15;100978.94;4967821;28;70701;-39
2023/12/23 07:37:48;;;;;;;5.88;1.80;;;;;;;32.45;54.97;100974.34;4968837;28;66202;-39
2023/12/23 07:40:18;;;;;;;6.95;1.90;;;;;;;32.47;54.94;100975.81;4966519;28;70303;-40
2023/12/23 07:42:49;;;;;;;3.38;2.10;;;;;;;32.46;54.92;100979.59;4966917;28;66017;-39
2023/12/23 07:45:21;;;;;;;1.90;1.50;;;;;;;32.46;55.26;100982.31;4962591;28;69209;-39
2023/12/23 07:47:51;;;;;;;7.80;1.45;;;;;;;32.38;55.12;100969.00;4952941;28;65807;-42
2023/12/23 07:50:22;;;;;;;10.23;2.00;;;;;;;32.36;55.33;100965.69;4963537;28;69134;-40
2023/12/23 07:52:53;;;;;;;2.63;1.90;;;;;;;32.51;55.17;100983.50;4975481;28;68487;-40
2023/12/23 07:55:24;;;;;;;3.60;1.58;;;;;;;32.55;55.19;100982.00;4951131;28;69362;-39
2023/12/23 07:57:55;;;;;;;2.05;1.67;;;;;;;32.54;55.29;100983.03;4973129;28;65377;-39
2023/12/23 08:00:25;;;;;;;7.55;1.70;;;;;;;32.30;55.88;100982.88;4975337;28;70363;-40
2023/12/23 08:02:55;;;;;;;3.90;2.00;;;;;;;32.07;56.74;100991.72;4954005;28;64986;-39
2023/12/23 08:05:25;;;;;;;4.68;1.75;;;;;;;31.97;57.15;100992.25;4971311;28;70111;-40
2023/12/23 08:07:56;;;;;;;4.72;1.63;;;;;;;31.81;57.42;100984.66;4979386;28;66501;-39
2023/12/23 08:10:26;;;;;;;3.63;1.73;;;;;;;31.79;57.57;101000.34;4975900;28;70086;-41
2023/12/23 08:12:57;;;;;;;2.40;1.50;;;;;;;31.77;58.06;101000.56;4935937;28;66294;-40
2023/12/23 08:15:27;;;;;;;3.63;1.90;;;;;;;31.68;58.14;100996.47;4964867;28;70300;-42
2023/12/23 08:17:57;;;;;;;2.83;1.90;;;;;;;31.68;58.37;101006.47;4966271;28;65542;-39
2023/12/23 08:20:28;;;;;;;2.08;1.75;;;;;;;31.74;57.66;101006.44;4965841;28;70006;-41
2023/12/23 08:22:58;;;;;;;2.45;1.52;;;;;;;31.53;58.65;100982.41;4969662;28;65764;-39
2023/12/23 08:25:28;;;;;;;4.22;1.60;;;;;;;31.70;58.60;101010.63;4966235;28;69507;-39
2023/12/23 08:27:58;;;;;;;3.33;2.00;;;;;;;31.66;59.25;101014.84;4964638;28;65868;-39
2023/12/23 08:30:29;;;;;;;2.35;2.03;;;;;;;31.73;58.70;101009.34;4968711;28;69870;-46
2023/12/23 08:32:59;;;;;;;2.20;1.70;;;;;;;31.68;59.41;101011.88;4935589;28;66921;-39
2023/12/23 08:35:31;;;;;;;7.25;2.33;;;;;;;31.73;59.30;101012.06;4969431;28;70039;-40
2023/12/23 08:38:01;;;;;;;;;;;;;;;31.47;60.99;101015.84;4966832;28;66929;-39
2023/12/23 08:40:32;;;;;;;5.88;3.67;;;;;;;31.67;58.94;101026.50;4955653;28;70451;-40
2023/12/23 08:43:03;;;;;;;9.50;4.70;;;;;;;31.57;58.45;101003.44;4967657;28;65688;-40
2023/12/23 08:45:34;;;;;;;12.47;5.07;;;;;;;31.72;57.85;101023.97;4968801;28;70139;-42
2023/12/23 08:48:04;;;;;;;7.32;5.60;;;;;;;31.66;58.43;101020.28;4964103;28;65406;-41
2023/12/23 08:50:34;;;;;;;5.07;4.57;;;;;;;31.61;57.87;101010.06;4966939;28;69688;-40
2023/12/23 08:53:05;;;;;;;17.17;5.82;;;;;;;31.52;57.61;100987.00;4966064;28;65619;-40
2023/12/23 08:55:35;;;;;;;21.92;5.57;;;;;;;31.79;57.86;101030.19;4965935;28;70418;-42
2023/12/23 08:58:05;;;;;;;6.80;4.90;;;;;;;31.66;59.43;101025.69;4965869;28;66129;-42
2023/12/23 09:00:37;;;;;;;5.18;4.75;;;;;;;31.69;59.16;101027.97;4968495;28;69618;-40
2023/12/23 09:03:07;;;;;;;9.20;4.33;;;;;;;31.70;60.47;101026.06;4965492;28;66461;-40
2023/12/23 09:05:38;;;;;;;7.22;4.13;;;;;;;31.70;60.72;101028.78;4967265;28;69585;-40
2023/12/23 09:08:08;;;;;;;5.35;4.00;;;;;;;31.73;61.17;101036.47;4968349;28;66078;-41
2023/12/23 09:10:38;;;;;;;6.60;4.13;;;;;;;31.75;60.56;101045.22;4966688;28;68821;-39
2023/12/23 09:13:09;;;;;;;4.53;4.13;;;;;;;31.75;61.57;101045.22;4965381;28;66666;-40
2023/12/23 09:15:39;;;;;;;6.28;3.80;;;;;;;31.76;62.23;101052.28;4966258;28;69670;-40
2023/12/23 09:18:09;;;;;;;6.05;3.22;;;;;;;31.79;61.21;101054.59;4948566;28;66495;-41
2023/12/23 09:20:40;;;;;;;4.13;3.17;;;;;;;31.64;63.72;101043.22;4963265;28;69341;-41
2023/12/23 09:23:10;;;;;;;3.83;3.15;;;;;;;31.81;61.82;101060.59;4960872;28;65969;-40
2023/12/23 09:25:40;;;;;;;5.13;2.42;;;;;;;31.76;63.27;101057.72;4965369;28;69195;-40
2023/12/23 09:28:10;;;;;;;3.22;2.75;;;;;;;31.71;62.80;101049.44;4961877;28;66238;-41
2023/12/23 09:30:41;;;;;;;3.22;2.95;;;;;;;31.75;62.73;101062.31;4955388;28;70242;-41
2023/12/23 09:33:11;;;;;;;2.85;2.65;;;;;;;31.76;62.94;101063.16;4977459;28;66132;-39
2023/12/23 09:35:42;;;;;;;3.72;2.72;;;;;;;31.75;62.54;101058.78;4956036;28;70305;-40
2023/12/23 09:38:12;;;;;;;2.92;2.72;;;;;;;31.69;62.37;101062.38;4960435;28;67751;-40
2023/12/23 09:40:42;;;;;;;3.38;2.30;;;;;;;31.74;61.34;101057.13;4971369;28;70670;-40
2023/12/23 09:43:15;;;;;;;2.90;2.67;;;;;;;31.70;62.78;101069.47;4955311;28;65993;-39
2023/12/23 09:45:48;;;;;;;2.88;2.67;;;;;;;31.73;62.70;101060.88;4958790;28;70193;-41
2023/12/23 09:48:19;;;;;;;2.58;2.38;;;;;;;31.76;61.84;101063.16;4972202;28;66850;-40
2023/12/23 09:50:49;;;;;;;2.60;2.40;;;;;;;31.69;62.78;101067.81;4968197;28;70341;-40
2023/12/23 09:53:22;;;;;;;5.75;2.78;;;;;;;31.53;62.93;101059.16;4964509;28;66623;-40
2023/12/23 09:55:52;;;;;;;2.35;2.25;;;;;;;31.75;61.77;101072.34;4965214;28;70451;-40
2023/12/23 09:58:22;;;;;;;2.67;2.20;;;;;;;31.67;63.66;101086.19;4950611;28;66539;-40
2023/12/23 10:00:52;;;;;;;2.35;2.15;;;;;;;31.68;62.77;101072.41;4965683;28;70690;-40
2023/12/23 10:03:22;;;;;;;3.40;2.30;;;;;;;31.57;63.03;101071.25;4973553;28;66348;-40
2023/12/23 10:05:54;;;;;;;2.10;2.00;;;;;;;31.65;64.03;101091.84;4975038;28;70150;-39
2023/12/23 10:08:25;;;;;;;5.13;2.25;;;;;;;31.65;63.75;101088.28;4955947;28;65673;-39
2023/12/23 10:10:55;;;;;;;2.63;2.40;;;;;;;31.63;64.34;101096.66;4945082;28;70775;-40
2023/12/23 10:13:25;;;;;;;2.70;2.40;;;;;;;31.67;63.14;101097.03;4949476;28;66314;-40
2023/12/23 10:15:55;;;;;;;2.25;1.90;;;;;;;31.62;64.95;101103.09;4970487;28;69790;-39
2023/12/23 10:18:26;;;;;;;2.58;2.38;;;;;;;31.64;64.50;101109.16;4953742;28;66142;-41
2023/12/23 10:20:57;;;;;;;2.58;2.38;;;;;;;31.60;64.19;101100.63;4968733;28;70976;-42
2023/12/23 10:23:29;;;;;;;2.33;2.13;;;;;;;31.79;62.18;101100.69;4970231;28;68240;-41
2023/12/23 10:26:01;;;;;;;2.10;1.90;;;;;;;31.92;61.30;101097.88;4954766;28;69675;-42
2023/12/23 10:28:35;;;;;;;;;;;;;;;31.81;63.28;101114.84;4959891;28;66089;-40
2023/12/23 10:31:09;;;;;;;3.42;1.98;;;;;;;31.65;61.07;101047.59;4982154;28;69773;-40
2023/12/23 10:33:47;;;;;;;2.40;2.20;;;;;;;32.15;60.84;101131.69;4955069;28;66291;-41
2023/12/23 10:36:20;;;;;;;4.03;2.10;;;;;;;31.74;60.74;101054.41;4971187;28;69888;-40
2023/12/23 10:38:58;;;;;;;2.08;1.88;;;;;;;31.69;60.72;101041.50;4955040;28;66402;-40
2023/12/23 10:41:46;;;;;;;2.88;2.67;;;;;;;32.19;61.03;101131.03;4968867;28;70660;-40
2023/12/23 10:44:18;;;;;;;2.25;2.05;;;;;;;32.30;60.31;101129.47;4946863;28;66706;-40
2023/12/23 10:46:51;;;;;;;3.28;2.00;;;;;;;32.32;60.37;101126.53;4973269;28;71549;-39
2023/12/23 10:49:24;;;;;;;4.15;2.50;;;;;;;32.31;60.42;101117.56;4954382;28;66404;-40
2023/12/23 10:51:56;;;;;;;3.58;2.25;;;;;;;32.27;60.50;101108.22;4975293;28;70679;-39
2023/12/23 10:54:27;;;;;;;2.67;2.15;;;;;;;32.36;60.09;101133.19;4973338;28;66716;-39
2023/12/23 10:57:01;;;;;;;3.50;2.67;;;;;;;32.38;60.20;101137.34;4941941;28;70172;-39
2023/12/23 10:59:32;;;;;;;68.13;4.95;;;;;;;32.38;60.36;101142.75;4964454;28;66661;-38
2023/12/23 11:02:19;;;;;;;32.42;3.63;;;;;;;32.17;60.95;101107.88;4967889;28;69640;-38
2023/12/23 11:04:53;;;;;;;10.43;3.05;;;;;;;31.94;60.88;101082.22;4973029;28;66427;-39
2023/12/23 11:07:29;;;;;;;24.02;3.30;;;;;;;32.07;64.04;101161.84;4934440;28;69207;-38
2023/12/23 11:10:02;;;;;;;12.70;4.32;;;;;;;31.83;62.59;101162.41;4974023;28;66720;-39
2023/12/23 11:12:34;;;;;;;24.20;4.13;;;;;;;31.84;63.25;101174.09;4949472;28;69580;-40
2023/12/23 11:15:05;;;;;;;9.45;4.60;;;;;;;31.78;64.53;101181.22;4959836;28;66259;-39
2023/12/23 11:17:43;;;;;;;17.83;4.90;;;;;;;31.55;65.31;101146.53;4974884;28;69121;-38
2023/12/23 11:20:31;;;;;;;16.27;4.72;;;;;;;31.67;65.78;101178.38;4976183;28;66087;-39
2023/12/23 11:23:27;;;;;;;12.80;5.35;;;;;;;31.64;66.37;101178.81;4980886;28;70303;-39
2023/12/23 11:25:58;;;;;;;22.08;4.80;;;;;;;31.78;65.07;101183.09;4946672;28;65325;-39
2023/12/23 11:28:33;;;;;;;20.08;5.45;;;;;;;31.64;66.70;101167.97;4957325;28;69606;-39
2023/12/23 11:31:04;;;;;;;16.27;5.20;;;;;;;31.77;67.07;101195.03;4955079;28;65316;-39
2023/12/23 11:33:36;;;;;;;25.30;5.33;;;;;;;31.75;67.51;101202.53;4976680;28;70523;-38
2023/12/23 11:36:07;;;;;;;14.40;5.28;;;;;;;31.81;66.03;101207.06;4971480;28;65209;-40
2023/12/23 11:38:50;;;;;;;14.65;5.63;;;;;;;31.75;68.00;101210.66;4960510;28;70057;-38
2023/12/23 11:41:22;;;;;;;19.45;4.97;;;;;;;31.96;64.65;101213.06;4956126;28;66125;-39
2023/12/23 11:43:53;;;;;;;21.48;5.07;;;;;;;32.07;63.55;101210.69;4972515;28;70198;-38